Time;durP1;ratioP1;P1;durP2;ratioP2;P2;SDS_P1;SDS_P2;PMS_P1;PMS_P2;Temp;Humidity;BMP_temperature;BMP_pressure;BME280_temperature;BME280_humidity;BME280_pressure;Samples;Min_cycle;Max_cycle;Signal;HPM_P1;HPM_P2
2022/11/02 00:01:14;;;;;;;;;;;;;;;20.13;46.07;95800.41;6108097;19;1224;-68
2022/11/02 00:03:20;;;;;;;;;;;;;;;20.11;46.27;95795.25;6120277;19;2025;-69
2022/11/02 00:05:25;;;;;;;;;;;;;;;20.11;46.07;95797.91;6120007;19;1027;-69
2022/11/02 00:07:28;;;;;;;;;;;;;;;20.12;46.00;95801.44;6119749;19;1859;-69
2022/11/02 00:09:31;;;;;;;;;;;;;;;20.13;46.00;95803.06;6118430;19;1387;-68
2022/11/02 00:11:36;;;;;;;;;;;;;;;20.13;46.53;95802.25;6095503;19;1667;-68
2022/11/02 00:13:39;;;;;;;;;;;;;;;20.14;46.46;95799.38;6121074;19;1847;-68
2022/11/02 00:15:42;;;;;;;;;;;;;;;20.14;46.07;95798.56;6121769;19;1857;-68
2022/11/02 00:17:48;;;;;;;;;;;;;;;20.15;46.36;95801.03;6119695;19;1864;-68
2022/11/02 00:19:55;;;;;;;;;;;;;;;20.14;46.28;95796.69;6119587;19;994;-68
2022/11/02 00:22:00;;;;;;;;;;;;;;;20.14;46.32;95807.38;6101520;19;1822;-67
2022/11/02 00:24:05;;;;;;;;;;;;;;;20.15;45.99;95800.22;6120593;19;1838;-68
2022/11/02 00:26:08;;;;;;;;;;;;;;;20.14;45.92;95804.72;6117711;19;1353;-69
2022/11/02 00:28:11;;;;;;;;;;;;;;;20.14;46.15;95799.38;6119473;19;1863;-69
2022/11/02 00:30:15;;;;;;;;;;;;;;;20.13;46.21;95803.06;6118379;19;1129;-67
2022/11/02 00:32:18;;;;;;;;;;;;;;;20.15;46.61;95801.03;6121592;19;2056;-69
2022/11/02 00:34:22;;;;;;;;;;;;;;;20.15;46.33;95798.38;6094388;19;1583;-68
2022/11/02 00:36:28;;;;;;;;;;;;;;;20.15;46.33;95793.03;6119489;19;1058;-69
2022/11/02 00:38:32;;;;;;;;;;;;;;;20.16;46.68;95792.00;6120858;19;1852;-68
2022/11/02 00:40:35;;;;;;;;;;;;;;;20.16;46.85;95800.03;6121662;19;2007;-67
2022/11/02 00:42:38;;;;;;;;;;;;;;;20.16;46.80;95792.00;6119363;19;2018;-68
2022/11/02 00:44:42;;;;;;;;;;;;;;;20.16;46.76;95792.00;6097487;19;2766;-66
2022/11/02 00:46:45;;;;;;;;;;;;;;;20.17;46.56;95799.00;6119237;19;1139;-68
2022/11/02 00:48:48;;;;;;;;;;;;;;;20.17;46.74;95792.84;6117490;19;1847;-68
2022/11/02 00:50:52;;;;;;;;;;;;;;;20.16;46.40;95797.34;6120475;19;2173;-67
2022/11/02 00:52:58;;;;;;;;;;;;;;;20.17;46.85;95788.31;6118345;19;1835;-68
2022/11/02 00:55:01;;;;;;;;;;;;;;;20.17;46.61;95784.81;6121183;19;2038;-68
2022/11/02 00:57:04;;;;;;;;;;;;;;;20.16;46.49;95786.66;6092913;19;1101;-68
2022/11/02 00:59:07;;;;;;;;;;;;;;;20.17;46.91;95782.97;6119029;19;1287;-68
2022/11/02 01:01:11;;;;;;;;;;;;;;;20.16;46.93;95788.53;6118728;19;1140;-69
2022/11/02 01:03:14;;;;;;;;;;;;;;;20.18;46.64;95784.66;6119484;19;2053;-70
2022/11/02 01:05:17;;;;;;;;;;;;;;;20.17;46.66;95782.97;6121250;19;1684;-68
2022/11/02 01:07:21;;;;;;;;;;;;;;;20.18;47.05;95787.31;6102431;19;2143;-68
2022/11/02 01:09:27;;;;;;;;;;;;;;;20.20;46.92;95787.13;6116458;19;2028;-69
2022/11/02 01:11:30;;;;;;;;;;;;;;;20.19;46.73;95780.97;6116905;19;1397;-69
2022/11/02 01:13:34;;;;;;;;;;;;;;;20.20;46.65;95787.94;6118693;19;1009;-68
2022/11/02 01:15:38;;;;;;;;;;;;;;;20.20;46.46;95782.59;6120040;19;2087;-69
2022/11/02 01:17:41;;;;;;;;;;;;;;;20.20;46.77;95782.59;6117544;19;1025;-68
2022/11/02 01:19:45;;;;;;;;;;;;;;;20.21;46.72;95783.44;6093161;19;1851;-68
2022/11/02 01:21:48;;;;;;;;;;;;;;;20.20;46.68;95782.59;6118276;19;1053;-69
2022/11/02 01:23:51;;;;;;;;;;;;;;;20.20;46.63;95782.59;6120861;19;2019;-68
2022/11/02 01:25:57;;;;;;;;;;;;;;;20.21;46.63;95786.13;6119231;19;2026;-67
2022/11/02 01:28:01;;;;;;;;;;;;;;;20.21;46.45;95780.78;6117587;19;1853;-69
2022/11/02 01:30:04;;;;;;;;;;;;;;;20.21;46.55;95781.59;6095976;19;1450;-69
2022/11/02 01:32:07;;;;;;;;;;;;;;;20.21;46.61;95788.78;6126211;19;1909;-69
2022/11/02 01:34:12;;;;;;;;;;;;;;;20.21;46.33;95786.94;6125981;19;1723;-69
2022/11/02 01:36:18;;;;;;;;;;;;;;;20.20;46.44;95785.25;6124695;19;1710;-69
2022/11/02 01:38:22;;;;;;;;;;;;;;;20.21;46.27;95781.59;6124615;19;1108;-69
2022/11/02 01:40:25;;;;;;;;;;;;;;;20.22;46.36;95790.44;6123548;19;1112;-68
2022/11/02 01:42:31;;;;;;;;;;;;;;;20.21;46.28;95778.09;6100000;19;1790;-69
2022/11/02 01:44:35;;;;;;;;;;;;;;;20.21;46.43;95780.78;6124654;19;1702;-68
2022/11/02 01:46:40;;;;;;;;;;;;;;;20.21;46.25;95778.94;6127286;19;1841;-69
2022/11/02 01:48:44;;;;;;;;;;;;;;;20.22;46.26;95779.75;6122215;19;1853;-69
2022/11/02 01:50:48;;;;;;;;;;;;;;;20.21;46.62;95780.78;6126320;19;2069;-68
2022/11/02 01:52:51;;;;;;;;;;;;;;;20.20;46.57;95774.59;6100766;19;1875;-68
2022/11/02 01:54:57;;;;;;;;;;;;;;;20.21;46.14;95770.09;6125601;19;1704;-69
2022/11/02 01:57:05;;;;;;;;;;;;;;;20.22;46.59;95779.75;6127397;19;2011;-69
2022/11/02 01:59:12;;;;;;;;;;;;;;;20.21;46.61;95772.78;6123998;19;1752;-69
2022/11/02 02:01:15;;;;;;;;;;;;;;;20.21;46.19;95773.59;6124174;19;975;-69
2022/11/02 02:03:20;;;;;;;;;;;;;;;20.21;46.49;95776.25;6118147;19;1853;-69
2022/11/02 02:05:24;;;;;;;;;;;;;;;20.21;46.22;95768.25;6110546;19;1403;-70
2022/11/02 02:07:28;;;;;;;;;;;;;;;20.22;46.36;95772.56;6124093;19;1850;-70
2022/11/02 02:09:32;;;;;;;;;;;;;;;20.21;46.37;95778.94;6121590;19;2017;-70
2022/11/02 02:11:36;;;;;;;;;;;;;;;20.19;46.45;95767.63;6123672;19;1062;-70
2022/11/02 02:13:40;;;;;;;;;;;;;;;20.21;46.31;95770.94;6123968;19;2013;-70
2022/11/02 02:16:01;;;;;;;;;;;;;;;20.21;46.19;95765.59;6101551;19;1532;-70
2022/11/02 02:18:09;;;;;;;;;;;;;;;20.21;46.41;95768.25;6125613;19;2041;-70
2022/11/02 02:20:19;;;;;;;;;;;;;;;20.20;46.29;95765.75;6125358;19;1857;-70
2022/11/02 02:22:44;;;;;;;;;;;;;;;20.21;46.48;95768.25;6125737;19;1688;-70
2022/11/02 02:24:52;;;;;;;;;;;;;;;20.21;46.60;95762.91;6122286;19;1314;-70
2022/11/02 02:27:02;;;;;;;;;;;;;;;20.21;46.45;95757.59;6101825;19;1131;-68
2022/11/02 02:29:12;;;;;;;;;;;;;;;20.19;46.53;95754.28;6124583;19;2028;-69
2022/11/02 02:31:18;;;;;;;;;;;;;;;20.21;46.58;95757.59;6127005;19;2589;-69
2022/11/02 02:33:26;;;;;;;;;;;;;;;20.21;46.32;95762.09;6122339;19;970;-70
2022/11/02 02:35:31;;;;;;;;;;;;;;;20.21;46.12;95757.59;6122879;19;1060;-70
2022/11/02 02:37:38;;;;;;;;;;;;;;;20.20;46.54;95760.44;6111769;19;1828;-69
2022/11/02 02:39:44;;;;;;;;;;;;;;;20.22;46.25;95759.22;6110146;19;2118;-69
2022/11/02 02:41:50;;;;;;;;;;;;;;;20.21;46.13;95756.75;6125734;19;2004;-68
2022/11/02 02:43:55;;;;;;;;;;;;;;;20.21;46.18;95757.59;6125206;19;2012;-68
2022/11/02 02:46:03;;;;;;;;;;;;;;;20.20;46.60;95755.91;6123026;19;970;-70
2022/11/02 02:48:09;;;;;;;;;;;;;;;20.20;46.16;95761.25;6121902;19;2132;-68
2022/11/02 02:50:15;;;;;;;;;;;;;;;20.20;46.38;95755.91;6099122;19;2048;-69
2022/11/02 02:52:19;;;;;;;;;;;;;;;20.20;46.40;95749.75;6122527;19;1387;-69
2022/11/02 02:54:25;;;;;;;;;;;;;;;20.20;46.71;95763.91;6124554;19;1823;-69
2022/11/02 02:56:31;;;;;;;;;;;;;;;20.19;46.72;95759.59;6121621;19;1065;-69
2022/11/02 02:58:38;;;;;;;;;;;;;;;20.21;46.43;95762.09;6123363;19;2027;-69
2022/11/02 03:00:42;;;;;;;;;;;;;;;20.19;46.66;95754.28;6108346;19;2032;-69
2022/11/02 03:02:59;;;;;;;;;;;;;;;20.20;46.41;95761.25;6118533;19;1963;-69
2022/11/02 03:05:03;;;;;;;;;;;;;;;20.23;46.51;95754.72;6121573;19;1032;-69
2022/11/02 03:07:06;;;;;;;;;;;;;;;20.23;45.82;95754.72;6121199;19;1029;-68
2022/11/02 03:09:11;;;;;;;;;;;;;;;20.22;45.98;95759.22;6123038;19;1984;-69
2022/11/02 03:11:16;;;;;;;;;;;;;;;20.23;45.65;95758.22;6119959;19;1586;-69
2022/11/02 03:13:30;;;;;;;;;;;;;;;20.25;45.99;95761.50;6103104;19;1829;-68
2022/11/02 03:15:37;;;;;;;;;;;;;;;20.25;45.96;95763.34;6122549;19;1954;-68
2022/11/02 03:17:46;;;;;;;;;;;;;;;20.25;45.95;95769.50;6120512;19;1985;-68
2022/11/02 03:19:57;;;;;;;;;;;;;;;20.25;46.31;95771.34;6123200;19;1847;-68
2022/11/02 03:22:02;;;;;;;;;;;;;;;20.26;46.18;95762.31;6121843;19;1041;-69
2022/11/02 03:24:10;;;;;;;;;;;;;;;20.24;46.25;95770.53;6100539;19;2036;-69
2022/11/02 03:26:16;;;;;;;;;;;;;;;20.24;46.41;95773.22;6119638;19;1534;-67
2022/11/02 03:28:26;;;;;;;;;;;;;;;20.25;46.02;95774.03;6122379;19;2030;-69
2022/11/02 03:30:33;;;;;;;;;;;;;;;20.23;45.96;95768.06;6119359;19;1841;-70
2022/11/02 03:32:41;;;;;;;;;;;;;;;20.22;46.02;95772.56;6120229;19;1108;-69
2022/11/02 03:34:46;;;;;;;;;;;;;;;20.22;46.32;95763.75;6112898;19;2000;-69
2022/11/02 03:36:56;;;;;;;;;;;;;;;20.22;46.14;95769.91;6109926;19;2020;-69
2022/11/02 03:39:01;;;;;;;;;;;;;;;20.22;46.41;95766.41;6122398;19;2014;-69
2022/11/02 03:41:06;;;;;;;;;;;;;;;20.22;46.05;95763.75;6120740;19;1062;-70
2022/11/02 03:43:09;;;;;;;;;;;;;;;20.21;46.05;95765.59;6121551;19;2038;-69
2022/11/02 03:45:15;;;;;;;;;;;;;;;20.21;46.20;95762.09;6121214;19;844;-68
2022/11/02 03:47:21;;;;;;;;;;;;;;;20.21;46.50;95776.25;6097103;19;1722;-68
2022/11/02 03:49:25;;;;;;;;;;;;;;;20.22;46.37;95764.56;6123440;19;1861;-71
2022/11/02 03:51:31;;;;;;;;;;;;;;;20.07;46.89;95759.28;6118807;19;1053;-68
2022/11/02 03:53:39;;;;;;;;;;;;;;;20.09;46.62;95765.28;6121120;19;1654;-68
2022/11/02 03:55:46;;;;;;;;;;;;;;;20.20;46.73;95771.91;6122434;19;2007;-70
2022/11/02 03:57:51;;;;;;;;;;;;;;;20.23;46.29;95766.22;6098562;19;1997;-68
2022/11/02 03:59:54;;;;;;;;;;;;;;;20.25;46.67;95766.84;6120480;19;1982;-68
2022/11/02 04:01:58;;;;;;;;;;;;;;;20.26;46.32;95757.00;6121732;19;1987;-73
2022/11/02 04:04:01;;;;;;;;;;;;;;;20.29;46.29;95769.97;6120555;19;1058;-73
2022/11/02 04:06:04;;;;;;;;;;;;;;;20.28;46.61;95766.47;6120971;19;966;-69
2022/11/02 04:08:21;;;;;;;;;;;;;;;20.27;46.26;95756.81;6119150;19;1170;-69
2022/11/02 04:10:27;;;;;;;;;;;;;;;20.28;46.56;95758.44;6096168;19;1838;-69
2022/11/02 04:14:44;;;;;;;;;;;;;;;18.72;39.55;95762.31;6120900;19;784;-67
2022/11/02 04:16:47;;;;;;;;;;;;;;;18.53;39.73;95758.28;6120837;19;2095;-68
2022/11/02 04:21:06;;;;;;;;;;;;;;;18.30;38.72;95758.31;6099397;19;1759;-67
2022/11/02 04:25:39;;;;;;;;;;;;;;;18.19;37.92;95755.25;6116661;19;2058;-68
2022/11/02 04:27:42;;;;;;;;;;;;;;;18.14;38.03;95763.75;6121472;19;1795;-68
2022/11/02 04:29:46;;;;;;;;;;;;;;;18.05;37.92;95755.00;6120906;19;1876;-68
2022/11/02 04:31:50;;;;;;;;;;;;;;;18.01;37.74;95758.19;6099952;19;1822;-68
2022/11/02 04:33:50;;;;;;;;;;;;;;;17.94;37.70;95758.09;6121927;19;2024;-66
2022/11/02 04:35:54;;;;;;;;;;;;;;;17.91;37.76;95762.94;6121107;19;2017;-68
2022/11/02 04:40:17;;;;;;;;;;;;;;;18.08;37.87;95761.81;6118615;19;1882;-73
2022/11/02 04:42:20;;;;;;;;;;;;;;;18.29;38.04;95755.81;6119685;19;1210;-73
2022/11/02 04:44:23;;;;;;;;;;;;;;;18.35;38.12;95765.75;6097038;19;1941;-74
2022/11/02 04:46:28;;;;;;;;;;;;;;;18.55;38.50;95760.75;6119074;19;1761;-75
2022/11/02 04:48:31;;;;;;;;;;;;;;;18.65;38.45;95765.81;6120076;19;2037;-75
2022/11/02 04:50:35;;;;;;;;;;;;;;;18.59;38.25;95764.72;6120342;19;1857;-75
2022/11/02 04:52:38;;;;;;;;;;;;;;;18.67;38.05;95763.84;6117911;19;1856;-71
2022/11/02 04:54:42;;;;;;;;;;;;;;;18.74;38.51;95770.09;6110502;19;1667;-68
2022/11/02 04:56:45;;;;;;;;;;;;;;;18.40;37.13;95767.88;6113122;19;1903;-69
2022/11/02 04:58:53;;;;;;;;;;;;;;;18.15;36.99;95769.91;6119421;19;2392;-68
2022/11/02 05:00:56;;;;;;;;;;;;;;;18.16;37.20;95766.25;6121113;19;1872;-68
2022/11/02 05:03:00;;;;;;;;;;;;;;;18.03;37.06;95762.34;6121225;19;1941;-68
2022/11/02 05:05:05;;;;;;;;;;;;;;;18.00;36.60;95768.00;6120100;19;1840;-68
2022/11/02 05:07:08;;;;;;;;;;;;;;;17.91;36.77;95769.06;6095768;19;1887;-68
2022/11/02 05:09:12;;;;;;;;;;;;;;;17.83;36.77;95771.78;6121620;19;2345;-68
2022/11/02 05:11:15;;;;;;;;;;;;;;;17.86;36.97;95769.59;6120194;19;1679;-68
2022/11/02 05:13:18;;;;;;;;;;;;;;;17.89;36.58;95765.75;6119707;19;1779;-68
2022/11/02 05:15:24;;;;;;;;;;;;;;;17.80;36.61;95774.78;6118415;19;2094;-68
2022/11/02 05:17:27;;;;;;;;;;;;;;;17.73;36.95;95779.97;6109953;19;1552;-67
2022/11/02 05:19:31;;;;;;;;;;;;;;;17.65;36.54;95783.47;6107476;19;1752;-67
2022/11/02 05:21:34;;;;;;;;;;;;;;;17.70;37.05;95779.47;6119274;19;1937;-68
2022/11/02 05:23:37;;;;;;;;;;;;;;;17.70;36.83;95782.97;6119509;19;2045;-66
2022/11/02 05:25:41;;;;;;;;;;;;;;;17.77;37.19;95777.81;6114403;19;1302;-67
2022/11/02 05:27:44;;;;;;;;;;;;;;;17.75;36.68;95785.13;6115652;19;1058;-67
2022/11/02 05:29:47;;;;;;;;;;;;;;;17.69;36.98;95789.28;6091497;19;1837;-68
2022/11/02 05:31:54;;;;;;;;;;;;;;;17.72;37.20;95796.06;6117339;19;1117;-68
2022/11/02 05:33:57;;;;;;;;;;;;;;;17.76;36.88;95792.13;6118452;19;1375;-67
2022/11/02 05:36:01;;;;;;;;;;;;;;;17.71;37.28;95784.63;6117636;19;1021;-68
2022/11/02 05:38:04;;;;;;;;;;;;;;;17.72;37.00;95794.22;6116454;19;1375;-67
2022/11/02 05:40:08;;;;;;;;;;;;;;;17.70;37.17;95798.06;6103784;19;1120;-65
2022/11/02 05:42:12;;;;;;;;;;;;;;;17.61;36.94;95795.47;6102933;19;1443;-67
2022/11/02 05:44:15;;;;;;;;;;;;;;;17.65;37.12;95801.25;6114118;19;1511;-66
2022/11/02 05:46:18;;;;;;;;;;;;;;;17.60;37.24;95807.09;6114950;19;1128;-67
2022/11/02 05:48:24;;;;;;;;;;;;;;;17.59;37.38;95808.09;6114537;19;1128;-68
2022/11/02 05:50:28;;;;;;;;;;;;;;;17.54;37.31;95810.44;6113962;19;1873;-68
2022/11/02 05:52:31;;;;;;;;;;;;;;;17.50;37.23;95808.28;6091211;19;1227;-67
2022/11/02 05:54:34;;;;;;;;;;;;;;;17.44;37.24;95812.47;6117183;19;1046;-67
2022/11/02 05:56:38;;;;;;;;;;;;;;;17.43;37.83;95818.78;6117529;19;1086;-67
2022/11/02 05:58:41;;;;;;;;;;;;;;;17.40;37.62;95825.28;6117834;19;1335;-67
2022/11/02 06:00:44;;;;;;;;;;;;;;;17.35;37.69;95826.78;6117570;19;1233;-68
2022/11/02 06:02:48;;;;;;;;;;;;;;;17.32;37.58;95822.66;6109236;19;1163;-67
2022/11/02 06:04:54;;;;;;;;;;;;;;;17.72;38.01;95836.75;6105625;19;1460;-68
2022/11/02 06:06:57;;;;;;;;;;;;;;;18.13;37.54;95825.13;6116746;19;1034;-68
2022/11/02 06:09:00;;;;;;;;;;;;;;;18.38;37.52;95833.75;6117972;19;1301;-68
2022/11/02 06:11:06;;;;;;;;;;;;;;;18.51;37.76;95824.16;6115981;19;1966;-69
2022/11/02 06:13:09;;;;;;;;;;;;;;;18.64;37.42;95836.06;6117838;19;1628;-68
2022/11/02 06:15:13;;;;;;;;;;;;;;;18.73;37.51;95840.31;6095935;19;1592;-68
2022/11/02 06:17:16;;;;;;;;;;;;;;;18.79;37.88;95836.94;6121348;19;1688;-68
2022/11/02 06:19:19;;;;;;;;;;;;;;;18.83;37.50;95837.41;6123078;19;1077;-68
2022/11/02 06:21:25;;;;;;;;;;;;;;;18.86;37.86;95832.53;6122593;19;1124;-70
2022/11/02 06:23:29;;;;;;;;;;;;;;;18.98;38.35;95836.44;6123215;19;1058;-68
2022/11/02 06:25:32;;;;;;;;;;;;;;;19.04;39.33;95844.72;6111842;19;1439;-69
2022/11/02 06:27:36;;;;;;;;;;;;;;;19.08;39.27;95838.00;6112048;19;1144;-70
2022/11/02 06:29:39;;;;;;;;;;;;;;;19.12;39.38;95841.94;6120695;19;1049;-68
2022/11/02 06:31:42;;;;;;;;;;;;;;;19.15;39.94;95846.91;6122932;19;1132;-69
2022/11/02 06:33:46;;;;;;;;;;;;;;;19.21;40.64;95840.88;6123309;19;1006;-71
2022/11/02 06:35:50;;;;;;;;;;;;;;;19.22;40.50;95847.84;6122742;19;1057;-67
2022/11/02 06:37:56;;;;;;;;;;;;;;;19.27;40.97;95847.31;6100204;19;1299;-67
2022/11/02 06:39:59;;;;;;;;;;;;;;;19.31;42.35;95849.41;6122993;19;1028;-67
2022/11/02 06:42:02;;;;;;;;;;;;;;;19.35;43.90;95848.03;6122680;19;1089;-67
2022/11/02 06:44:06;;;;;;;;;;;;;;;19.38;44.93;95847.66;6122145;19;974;-68
2022/11/02 06:46:09;;;;;;;;;;;;;;;19.41;45.83;95849.97;6122860;19;975;-68
2022/11/02 06:48:12;;;;;;;;;;;;;;;19.44;45.70;95851.44;6115230;19;1384;-68
2022/11/02 06:50:16;;;;;;;;;;;;;;;19.45;46.31;95851.25;6109658;19;1840;-68
2022/11/02 06:52:19;;;;;;;;;;;;;;;19.48;45.90;95846.56;6122004;19;1496;-68
2022/11/02 06:54:25;;;;;;;;;;;;;;;19.49;46.18;95845.53;6122255;19;1143;-68
2022/11/02 06:56:28;;;;;;;;;;;;;;;19.50;45.97;95839.22;6122481;19;1247;-68
2022/11/02 06:58:32;;;;;;;;;;;;;;;19.51;45.95;95841.69;6121922;19;951;-68
2022/11/02 07:00:35;;;;;;;;;;;;;;;19.53;45.74;95837.03;6099600;19;1278;-68
2022/11/02 07:02:38;;;;;;;;;;;;;;;19.54;45.42;95835.19;6120841;19;1462;-68
2022/11/02 07:04:42;;;;;;;;;;;;;;;19.54;45.16;95836.00;6122060;19;1065;-67
2022/11/02 07:06:45;;;;;;;;;;;;;;;19.55;45.17;95836.84;6121347;19;1049;-68
2022/11/02 07:08:48;;;;;;;;;;;;;;;19.56;45.11;95836.66;6122400;19;1009;-68
2022/11/02 07:10:54;;;;;;;;;;;;;;;19.56;45.42;95839.31;6116834;19;1852;-68
2022/11/02 07:12:58;;;;;;;;;;;;;;;19.57;44.90;95838.31;6108923;19;1192;-67
2022/11/02 07:15:02;;;;;;;;;;;;;;;19.58;44.54;95831.16;6121969;19;1013;-68
2022/11/02 07:17:05;;;;;;;;;;;;;;;19.59;44.61;95827.47;6121692;19;1132;-68
2022/11/02 07:19:08;;;;;;;;;;;;;;;19.60;44.54;95829.09;6121714;19;1030;-68
2022/11/02 07:21:12;;;;;;;;;;;;;;;19.59;44.30;95833.63;6120480;19;1133;-67
2022/11/02 07:23:15;;;;;;;;;;;;;;;19.61;44.15;95833.44;6098945;19;1300;-67
2022/11/02 07:25:18;;;;;;;;;;;;;;;19.62;44.04;95827.91;6120728;19;1289;-68
2022/11/02 07:27:24;;;;;;;;;;;;;;;19.62;43.53;95830.59;6118670;19;1062;-68
2022/11/02 07:29:27;;;;;;;;;;;;;;;19.64;43.67;95830.41;6119455;19;1344;-70
2022/11/02 07:31:31;;;;;;;;;;;;;;;19.65;43.79;95832.06;6119816;19;1856;-69
2022/11/02 07:33:34;;;;;;;;;;;;;;;19.65;43.83;95826.72;6118423;19;1034;-68
2022/11/02 07:35:38;;;;;;;;;;;;;;;19.64;44.11;95828.56;6105583;19;1156;-69
2022/11/02 07:37:41;;;;;;;;;;;;;;;19.65;43.76;95822.22;6121186;19;1062;-68
2022/11/02 07:39:44;;;;;;;;;;;;;;;19.66;44.08;95828.38;6121181;19;1036;-68
2022/11/02 07:41:48;;;;;;;;;;;;;;;19.65;43.93;95826.72;6120676;19;1132;-69
2022/11/02 07:43:54;;;;;;;;;;;;;;;19.65;44.02;95824.88;6120044;19;1070;-69
2022/11/02 07:45:57;;;;;;;;;;;;;;;19.66;43.67;95825.69;6098240;19;1522;-68
2022/11/02 07:48:01;;;;;;;;;;;;;;;19.67;43.29;95816.69;6121070;19;1053;-68
2022/11/02 07:50:04;;;;;;;;;;;;;;;19.68;42.97;95821.00;6120414;19;1018;-68
2022/11/02 07:52:08;;;;;;;;;;;;;;;19.67;42.95;95819.38;6118634;19;1852;-68
2022/11/02 07:54:11;;;;;;;;;;;;;;;19.67;42.41;95820.19;6121387;19;1209;-67
2022/11/02 07:56:15;;;;;;;;;;;;;;;19.67;42.27;95814.03;6118741;19;1061;-68
2022/11/02 07:58:18;;;;;;;;;;;;;;;19.68;42.55;95815.69;6103203;19;1546;-68
2022/11/02 08:00:24;;;;;;;;;;;;;;;19.69;42.30;95816.50;6120560;19;1054;-68
2022/11/02 08:02:27;;;;;;;;;;;;;;;19.67;42.32;95809.53;6120648;19;1495;-69
2022/11/02 08:04:31;;;;;;;;;;;;;;;19.69;42.32;95812.03;6120400;19;1144;-69
2022/11/02 08:06:36;;;;;;;;;;;;;;;19.69;41.84;95809.34;6120020;19;959;-67
2022/11/02 08:08:39;;;;;;;;;;;;;;;19.70;42.24;95810.19;6098977;19;1235;-68
2022/11/02 08:10:43;;;;;;;;;;;;;;;19.69;41.83;95801.34;6119559;19;1821;-69
2022/11/02 08:12:46;;;;;;;;;;;;;;;19.69;41.99;95806.69;6119756;19;1013;-69
2022/11/02 08:14:49;;;;;;;;;;;;;;;19.70;42.07;95803.00;6122221;19;1136;-77
2022/11/02 08:16:56;;;;;;;;;;;;;;;19.71;42.06;95796.66;6122512;19;963;-75
2022/11/02 08:18:59;;;;;;;;;;;;;;;19.70;42.40;95796.84;6119946;19;1583;-74
2022/11/02 08:21:04;;;;;;;;;;;;;;;19.70;42.42;95795.00;6103163;19;1164;-73
2022/11/02 08:23:07;;;;;;;;;;;;;;;19.72;42.17;95790.31;6120451;19;1010;-75
2022/11/02 08:25:11;;;;;;;;;;;;;;;19.72;42.46;95789.47;6119788;19;1299;-76
2022/11/02 08:27:14;;;;;;;;;;;;;;;19.71;42.43;95787.81;6119816;19;1037;-75
2022/11/02 08:29:18;;;;;;;;;;;;;;;19.71;42.61;95782.50;6127017;19;1053;-74
2022/11/02 08:31:21;;;;;;;;;;;;;;;19.73;42.61;95783.97;6097656;19;1834;-67
2022/11/02 08:33:27;;;;;;;;;;;;;;;19.74;42.54;95780.25;6119491;19;1085;-76
2022/11/02 08:35:31;;;;;;;;;;;;;;;19.74;42.69;95788.25;6119690;19;1045;-64
2022/11/02 08:37:34;;;;;;;;;;;;;;;19.74;42.35;95785.59;6119020;19;981;-70
2022/11/02 08:39:37;;;;;;;;;;;;;;;19.74;42.75;95777.59;6119738;19;1124;-71
2022/11/02 08:41:41;;;;;;;;;;;;;;;19.75;43.00;95773.94;6116967;19;1017;-71
2022/11/02 08:43:44;;;;;;;;;;;;;;;19.75;42.88;95775.75;6102446;19;1312;-71
2022/11/02 08:45:48;;;;;;;;;;;;;;;19.75;43.08;95771.28;6119823;19;1041;-73
2022/11/02 08:47:51;;;;;;;;;;;;;;;19.77;42.80;95771.88;6119234;19;1362;-69
2022/11/02 08:49:57;;;;;;;;;;;;;;;19.77;42.42;95768.41;6118607;19;1029;-68
2022/11/02 08:52:00;;;;;;;;;;;;;;;19.79;42.38;95769.88;6117714;19;2173;-68
2022/11/02 08:54:03;;;;;;;;;;;;;;;19.78;42.92;95765.56;6096552;19;1276;-68
2022/11/02 08:56:07;;;;;;;;;;;;;;;19.78;43.10;95754.91;6118976;19;1083;-69
2022/11/02 08:58:10;;;;;;;;;;;;;;;19.78;42.76;95767.41;6118480;19;1033;-70
2022/11/02 09:00:14;;;;;;;;;;;;;;;19.78;43.18;95767.41;6118946;19;1058;-67
2022/11/02 09:02:18;;;;;;;;;;;;;;;19.78;43.03;95756.75;6117467;19;1511;-68
2022/11/02 09:04:21;;;;;;;;;;;;;;;19.80;42.23;95754.69;6117246;19;1069;-68
2022/11/02 09:06:27;;;;;;;;;;;;;;;19.79;42.59;95759.19;6100172;19;1843;-69
2022/11/02 09:08:32;;;;;;;;;;;;;;;19.79;42.54;95759.19;6119179;19;1049;-69
2022/11/02 09:10:36;;;;;;;;;;;;;;;19.79;42.60;95756.53;6119132;19;1041;-68
2022/11/02 09:12:40;;;;;;;;;;;;;;;19.80;42.61;95755.50;6115848;19;1870;-68
2022/11/02 09:14:43;;;;;;;;;;;;;;;19.80;42.93;95755.50;6118918;19;1017;-68
2022/11/02 09:16:46;;;;;;;;;;;;;;;19.80;42.94;95755.50;6096157;19;1194;-70
2022/11/02 09:18:50;;;;;;;;;;;;;;;19.80;42.94;95755.50;6117600;19;1467;-67
2022/11/02 09:20:53;;;;;;;;;;;;;;;19.82;42.21;95747.34;6118841;19;1537;-67
2022/11/02 09:22:59;;;;;;;;;;;;;;;19.81;42.41;95735.84;6117910;19;1019;-67
2022/11/02 09:25:02;;;;;;;;;;;;;;;19.82;41.82;95744.66;6118209;19;1366;-67
2022/11/02 09:27:06;;;;;;;;;;;;;;;19.82;41.68;95737.50;6114638;19;1051;-66
2022/11/02 09:29:09;;;;;;;;;;;;;;;19.82;41.96;95737.50;6100655;19;1180;-67
2022/11/02 09:31:12;;;;;;;;;;;;;;;19.81;41.67;95730.50;6118550;19;1833;-66
2022/11/02 09:33:16;;;;;;;;;;;;;;;19.81;41.68;95735.84;6117924;19;1054;-66
2022/11/02 09:35:19;;;;;;;;;;;;;;;19.82;41.51;95732.16;6117526;19;1240;-67
2022/11/02 09:37:23;;;;;;;;;;;;;;;19.83;41.60;95728.50;6118518;19;1059;-67
2022/11/02 09:39:28;;;;;;;;;;;;;;;19.84;42.16;95719.47;6095189;19;1333;-67
2022/11/02 09:41:35;;;;;;;;;;;;;;;19.87;42.09;95721.75;6117328;19;1082;-68
2022/11/02 09:43:43;;;;;;;;;;;;;;;19.86;41.94;95717.44;6117636;19;1013;-67
2022/11/02 09:45:53;;;;;;;;;;;;;;;19.85;41.62;95715.78;6118430;19;1032;-68
2022/11/02 09:47:59;;;;;;;;;;;;;;;19.84;41.49;95706.13;6118719;19;1259;-67
2022/11/02 09:50:04;;;;;;;;;;;;;;;19.85;41.23;95704.28;6108409;19;1119;-68
2022/11/02 09:52:11;;;;;;;;;;;;;;;19.86;41.09;95714.78;6112423;19;1841;-68
2022/11/02 09:54:17;;;;;;;;;;;;;;;19.85;41.11;95702.44;6124230;19;1038;-68
2022/11/02 09:56:23;;;;;;;;;;;;;;;19.86;41.32;95703.25;6123476;19;1061;-68
2022/11/02 09:58:31;;;;;;;;;;;;;;;19.86;41.02;95690.78;6124015;19;1025;-68
2022/11/02 10:00:37;;;;;;;;;;;;;;;19.89;41.33;95700.25;6124023;19;1061;-69
2022/11/02 10:02:50;;;;;;;;;;;;;;;19.87;41.48;95684.41;6101449;19;1278;-68
2022/11/02 10:05:11;;;;;;;;;;;;;;;19.91;41.75;95689.38;6123375;19;943;-67
2022/11/02 10:07:20;;;;;;;;;;;;;;;19.89;41.84;95677.06;6123008;19;1160;-66
2022/11/02 10:09:28;;;;;;;;;;;;;;;19.92;41.79;95677.66;6124030;19;1024;-67
2022/11/02 10:11:46;;;;;;;;;;;;;;;19.91;42.16;95678.69;6122326;19;1854;-67
2022/11/02 10:13:52;;;;;;;;;;;;;;;19.89;42.26;95669.06;6100384;19;1198;-68
2022/11/02 10:15:57;;;;;;;;;;;;;;;19.89;42.42;95669.06;6123970;19;1069;-67
2022/11/02 10:18:02;;;;;;;;;;;;;;;19.91;42.48;95676.03;6123247;19;1020;-68
2022/11/02 10:20:07;;;;;;;;;;;;;;;19.91;42.46;95670.69;6124085;19;1307;-67
2022/11/02 10:22:13;;;;;;;;;;;;;;;19.93;42.31;95669.50;6123387;19;1002;-73
2022/11/02 10:24:24;;;;;;;;;;;;;;;19.95;42.61;95658.63;6106806;19;1147;-72
2022/11/02 10:26:29;;;;;;;;;;;;;;;19.93;42.31;95658.00;6119781;19;1281;-73
2022/11/02 10:28:38;;;;;;;;;;;;;;;19.93;42.62;95653.47;6122770;19;1114;-68
2022/11/02 10:30:42;;;;;;;;;;;;;;;19.95;42.19;95648.78;6123219;19;1059;-69
2022/11/02 10:32:46;;;;;;;;;;;;;;;19.93;42.13;95653.47;6120692;19;1852;-69
2022/11/02 10:34:49;;;;;;;;;;;;;;;19.97;42.31;95643.25;6123052;19;1024;-73
2022/11/02 10:36:57;;;;;;;;;;;;;;;19.98;42.44;95639.59;6101131;19;1447;-73
2022/11/02 10:39:07;;;;;;;;;;;;;;;19.97;42.03;95637.91;6123003;19;959;-73
2022/11/02 10:41:16;;;;;;;;;;;;;;;19.97;42.42;95627.25;6122390;19;1047;-72
2022/11/02 10:43:26;;;;;;;;;;;;;;;19.96;42.21;95631.75;6122481;19;1054;-73
2022/11/02 10:45:45;;;;;;;;;;;;;;;19.96;42.46;95626.44;6123098;19;1014;-74
2022/11/02 10:47:56;;;;;;;;;;;;;;;19.96;42.55;95625.59;6099790;19;1447;-74
2022/11/02 10:50:06;;;;;;;;;;;;;;;19.97;42.65;95624.56;6123112;19;1017;-72
2022/11/02 10:52:12;;;;;;;;;;;;;;;19.97;42.46;95628.06;6121420;19;1851;-72
2022/11/02 10:54:17;;;;;;;;;;;;;;;19.97;42.88;95619.25;6122538;19;1017;-73
2022/11/02 10:56:21;;;;;;;;;;;;;;;19.97;42.89;95620.06;6121554;19;1018;-75
2022/11/02 10:58:26;;;;;;;;;;;;;;;19.96;42.88;95617.59;6102194;19;1350;-76
2022/11/02 11:00:31;;;;;;;;;;;;;;;19.96;42.46;95609.59;6121679;19;1146;-74
2022/11/02 11:02:34;;;;;;;;;;;;;;;19.98;42.68;95613.72;6122035;19;1049;-73
2022/11/02 11:04:41;;;;;;;;;;;;;;;19.97;42.85;95606.72;6122033;19;1081;-73
2022/11/02 11:06:44;;;;;;;;;;;;;;;19.97;42.97;95604.06;6122334;19;1077;-74
2022/11/02 11:08:48;;;;;;;;;;;;;;;19.99;42.76;95601.22;6122101;19;1065;-72